Time;durP1;ratioP1;P1;durP2;ratioP2;P2;SDS_P1;SDS_P2;PMS_P1;PMS_P2;Temp;Humidity;BMP_temperature;BMP_pressure;BME280_temperature;BME280_humidity;BME280_pressure;Samples;Min_cycle;Max_cycle;Signal;HPM_P1;HPM_P2
2021/07/06 00:01:05;;;;;;;8.70;5.65;;;;;;;23.70;55.42;99986.19;5037992;28;20100;-68
2021/07/06 00:03:30;;;;;;;8.75;4.30;;;;;;;23.68;55.74;99983.84;5038084;28;20084;-68
2021/07/06 00:05:56;;;;;;;8.52;4.75;;;;;;;23.66;55.52;99983.56;5011135;28;20030;-68
2021/07/06 00:08:21;;;;;;;7.43;4.45;;;;;;;23.65;55.60;99979.09;5038085;28;20052;-69
2021/07/06 00:10:47;;;;;;;8.13;4.32;;;;;;;23.62;56.13;99982.19;5037839;28;20414;-69
2021/07/06 00:13:12;;;;;;;6.55;4.55;;;;;;;23.59;56.00;99989.72;5037824;28;20104;-69
2021/07/06 00:15:38;;;;;;;9.27;4.82;;;;;;;23.59;56.34;99989.72;5036603;28;20351;-70
2021/07/06 00:18:03;;;;;;;6.60;4.60;;;;;;;23.59;56.24;99984.00;5020305;28;20717;-69
2021/07/06 00:20:29;;;;;;;6.20;4.18;;;;;;;23.56;56.10;99982.13;5035873;28;20021;-69
2021/07/06 00:22:56;;;;;;;6.20;4.13;;;;;;;23.52;56.03;99992.97;5037624;28;20021;-69
2021/07/06 00:25:23;;;;;;;11.43;4.10;;;;;;;23.49;56.50;99993.97;5020024;28;20076;-70
2021/07/06 00:27:49;;;;;;;6.28;4.95;;;;;;;23.44;56.29;99995.50;5019998;28;20325;-72
2021/07/06 00:30:15;;;;;;;6.85;4.28;;;;;;;23.42;56.29;99994.41;5037364;28;20032;-70
2021/07/06 00:32:40;;;;;;;6.57;4.45;;;;;;;23.42;56.64;99997.28;5037570;28;20476;-68
2021/07/06 00:35:07;;;;;;;10.00;4.75;;;;;;;23.38;56.72;99996.72;5037182;28;20109;-68
2021/07/06 00:37:32;;;;;;;7.78;4.22;;;;;;;23.34;57.07;99996.16;5036235;28;20034;-69
2021/07/06 00:39:58;;;;;;;10.90;4.90;;;;;;;23.27;57.26;99990.81;5037259;28;20029;-69
2021/07/06 00:42:24;;;;;;;5.25;4.53;;;;;;;23.21;57.64;99996.47;5037619;28;20013;-68
2021/07/06 00:44:49;;;;;;;7.93;4.53;;;;;;;23.16;57.63;99991.47;5037040;28;20040;-68
2021/07/06 00:47:14;;;;;;;4.75;4.10;;;;;;;23.12;57.29;99994.53;5037165;28;20033;-68
2021/07/06 00:49:40;;;;;;;5.78;4.53;;;;;;;23.13;57.41;100001.06;5019870;28;20033;-70
2021/07/06 00:52:05;;;;;;;10.02;5.07;;;;;;;23.12;57.58;99994.53;5037185;28;20017;-68
2021/07/06 00:54:31;;;;;;;7.72;4.82;;;;;;;23.12;57.48;99996.63;5019274;28;20081;-69
2021/07/06 00:56:58;;;;;;;6.03;4.47;;;;;;;23.09;57.51;99991.88;5036944;28;20060;-69
2021/07/06 00:59:23;;;;;;;6.35;4.35;;;;;;;23.04;57.56;99987.66;5036943;28;20022;-70
2021/07/06 01:01:49;;;;;;;6.80;4.45;;;;;;;23.03;57.55;99988.94;5036970;28;20017;-70
2021/07/06 01:04:15;;;;;;;9.52;4.68;;;;;;;23.00;57.53;99989.91;5034472;28;20029;-69
2021/07/06 01:06:40;;;;;;;5.53;4.28;;;;;;;22.97;57.75;99990.91;5029009;28;20029;-70
2021/07/06 01:09:06;;;;;;;6.78;4.93;;;;;;;22.95;57.63;99993.50;5036451;28;20040;-69
2021/07/06 01:11:34;;;;;;;5.63;4.28;;;;;;;22.93;57.98;99996.06;5036857;28;20033;-68
2021/07/06 01:13:59;;;;;;;5.47;4.97;;;;;;;22.92;58.00;99988.75;5036465;28;20032;-70
2021/07/06 01:16:25;;;;;;;7.28;4.82;;;;;;;22.90;58.07;99990.53;5036815;28;20045;-69
2021/07/06 01:18:50;;;;;;;7.75;4.93;;;;;;;22.86;58.20;99993.63;5036591;28;20040;-69
2021/07/06 01:21:15;;;;;;;8.32;4.20;;;;;;;22.85;58.09;100003.50;5036454;28;20013;-70
2021/07/06 01:23:41;;;;;;;5.53;4.78;;;;;;;22.83;58.44;100003.22;5040647;28;20065;-70
2021/07/06 01:26:07;;;;;;;8.48;4.85;;;;;;;22.80;58.59;99998.44;5034078;28;20423;-70
2021/07/06 01:28:38;;;;;;;6.00;4.70;;;;;;;22.74;58.90;100001.22;5036286;28;20021;-69
2021/07/06 01:31:04;;;;;;;7.07;4.40;;;;;;;22.71;59.01;100001.41;5036281;28;20091;-70
2021/07/06 01:33:31;;;;;;;5.53;4.10;;;;;;;22.68;59.19;100011.00;5036116;28;20397;-69
2021/07/06 01:36:07;;;;;;;9.02;4.30;;;;;;;22.64;59.47;99998.97;5035860;28;20029;-70
2021/07/06 01:38:33;;;;;;;5.35;4.70;;;;;;;22.63;59.51;100006.75;5036407;28;20028;-69
2021/07/06 01:41:00;;;;;;;6.38;4.47;;;;;;;22.60;60.04;100001.22;5018706;28;20021;-68
2021/07/06 01:43:25;;;;;;;6.53;4.97;;;;;;;22.56;59.95;100001.44;5018380;28;20037;-68
2021/07/06 01:45:50;;;;;;;6.55;4.93;;;;;;;22.52;60.28;100001.66;5036180;28;20030;-69
2021/07/06 01:48:16;;;;;;;8.45;4.63;;;;;;;22.49;59.81;100002.63;5035426;28;20021;-69
2021/07/06 01:50:43;;;;;;;6.95;4.72;;;;;;;22.47;59.64;99998.69;5036619;28;20026;-69
2021/07/06 01:53:11;;;;;;;6.80;4.53;;;;;;;22.44;59.92;100000.44;5035844;28;20041;-69
2021/07/06 01:55:40;;;;;;;5.65;4.82;;;;;;;22.43;59.69;100001.72;5035727;28;20045;-70
2021/07/06 01:58:07;;;;;;;9.85;4.80;;;;;;;22.42;59.63;100003.00;5035981;28;20109;-69
2021/07/06 02:00:36;;;;;;;10.48;4.65;;;;;;;22.41;59.62;100001.44;5036036;28;20021;-68
2021/07/06 02:03:04;;;;;;;5.57;4.25;;;;;;;22.41;59.68;100007.16;5035737;28;20304;-68
2021/07/06 02:05:36;;;;;;;5.10;4.60;;;;;;;22.41;59.68;99997.78;5010620;28;20348;-68
2021/07/06 02:08:05;;;;;;;5.75;4.63;;;;;;;22.37;59.64;100006.56;5035644;28;20022;-68
2021/07/06 02:10:31;;;;;;;6.63;4.57;;;;;;;22.33;59.73;99997.41;5035733;28;20032;-68
2021/07/06 02:12:57;;;;;;;6.47;4.63;;;;;;;22.29;59.78;99999.66;5034428;28;20026;-68
2021/07/06 02:15:23;;;;;;;5.25;4.70;;;;;;;22.28;59.77;100003.03;5018034;28;20320;-68
2021/07/06 02:17:49;;;;;;;5.43;4.85;;;;;;;;;;5035739;28;20029;-69
2021/07/06 02:20:17;;;;;;;8.27;5.40;;;;;;;22.24;59.78;100008.97;5035513;28;20025;-68
2021/07/06 02:22:43;;;;;;;5.35;4.85;;;;;;;22.25;60.05;100010.53;5035725;28;20017;-69
2021/07/06 02:25:09;;;;;;;5.63;4.43;;;;;;;;;;5035591;28;20025;-70
2021/07/06 02:27:35;;;;;;;7.35;5.13;;;;;;;22.25;59.66;100013.41;5035098;28;20479;-68
2021/07/06 02:30:01;;;;;;;5.45;4.35;;;;;;;22.27;59.69;100012.91;5035584;28;20032;-68
2021/07/06 02:32:26;;;;;;;4.93;4.43;;;;;;;22.26;60.10;100017.03;5035345;28;20028;-69
2021/07/06 02:34:52;;;;;;;7.65;5.18;;;;;;;22.23;59.74;100010.25;5035273;28;20063;-70
2021/07/06 02:37:18;;;;;;;7.65;4.95;;;;;;;22.18;59.96;100017.41;5035572;28;20033;-69
2021/07/06 02:39:43;;;;;;;9.85;4.68;;;;;;;22.14;60.04;100021.75;5035200;28;20078;-68
2021/07/06 02:42:09;;;;;;;8.02;4.63;;;;;;;22.10;60.07;100016.22;5017728;28;20017;-69
2021/07/06 02:44:34;;;;;;;6.88;4.45;;;;;;;22.06;60.32;100014.84;5035323;28;20029;-69
2021/07/06 02:47:00;;;;;;;5.70;4.90;;;;;;;22.04;60.33;100015.34;5035052;28;20409;-68
2021/07/06 02:49:25;;;;;;;5.65;4.95;;;;;;;22.02;60.38;100022.81;5035465;28;20030;-68
2021/07/06 02:51:51;;;;;;;7.80;5.05;;;;;;;22.00;60.42;100016.78;5035151;28;20013;-68
2021/07/06 02:54:16;;;;;;;8.25;5.00;;;;;;;21.98;60.68;100025.06;5035238;28;20049;-68
2021/07/06 02:56:41;;;;;;;12.35;5.03;;;;;;;21.96;60.66;100022.72;5034837;28;20021;-68
2021/07/06 02:59:07;;;;;;;8.73;4.88;;;;;;;21.96;60.41;100027.63;5035483;28;20053;-68
2021/07/06 03:01:32;;;;;;;6.15;4.88;;;;;;;21.95;60.63;100017.47;5039157;28;20021;-68
2021/07/06 03:03:57;;;;;;;6.63;4.90;;;;;;;21.95;60.47;100023.19;5039000;28;20025;-69
2021/07/06 03:06:23;;;;;;;6.97;4.68;;;;;;;21.89;61.29;100032.44;5031751;28;20124;-68
2021/07/06 03:08:49;;;;;;;6.57;4.90;;;;;;;21.82;61.20;100027.09;5021550;28;20163;-68
2021/07/06 03:11:14;;;;;;;5.35;4.78;;;;;;;21.80;60.96;100021.06;5038914;28;20030;-68
2021/07/06 03:13:40;;;;;;;6.47;4.68;;;;;;;21.78;61.05;100017.13;5039087;28;20032;-68
2021/07/06 03:16:05;;;;;;;7.35;4.45;;;;;;;21.77;61.23;100024.13;5021663;28;20108;-68
2021/07/06 03:18:31;;;;;;;4.88;4.25;;;;;;;21.77;61.04;100029.84;5021308;28;20025;-68
2021/07/06 03:20:56;;;;;;;5.35;4.57;;;;;;;21.76;60.92;100031.13;5038765;28;20017;-69
2021/07/06 03:23:22;;;;;;;5.60;4.80;;;;;;;21.76;61.24;100026.19;5038118;28;20040;-69
2021/07/06 03:25:47;;;;;;;11.35;5.03;;;;;;;21.76;60.96;100031.91;5020983;28;20112;-69
2021/07/06 03:28:13;;;;;;;12.55;5.13;;;;;;;21.72;61.46;100039.91;5038557;28;20029;-68
2021/07/06 03:30:39;;;;;;;6.43;4.97;;;;;;;21.67;61.32;100037.72;5021348;28;20036;-68
2021/07/06 03:33:07;;;;;;;8.73;4.60;;;;;;;21.67;61.29;100034.88;5038411;28;20033;-68
2021/07/06 03:35:33;;;;;;;6.55;4.10;;;;;;;21.69;61.23;100034.38;5021086;28;20041;-69
2021/07/06 03:37:59;;;;;;;6.25;4.93;;;;;;;21.70;61.11;100031.03;5038384;28;20029;-69
2021/07/06 03:40:26;;;;;;;6.60;4.68;;;;;;;21.72;61.40;100034.19;5037542;28;20467;-68
2021/07/06 03:42:52;;;;;;;10.38;4.90;;;;;;;21.74;61.23;100030.84;5038220;28;20423;-68
2021/07/06 03:45:19;;;;;;;8.52;4.68;;;;;;;21.76;61.20;100034.78;5038358;28;20100;-68
2021/07/06 03:47:44;;;;;;;8.15;4.53;;;;;;;21.78;61.57;100035.09;5038216;28;20049;-68
2021/07/06 03:50:17;;;;;;;5.80;4.30;;;;;;;21.79;61.64;100030.94;5038273;28;20117;-69
2021/07/06 03:52:42;;;;;;;8.77;4.95;;;;;;;21.83;61.13;100030.75;5020490;28;20048;-68
2021/07/06 03:55:08;;;;;;;8.20;4.53;;;;;;;21.88;60.77;100035.78;5037883;28;20033;-68
2021/07/06 03:57:35;;;;;;;9.35;4.90;;;;;;;21.88;60.57;100035.78;5037444;28;20025;-69
2021/07/06 04:00:07;;;;;;;8.38;5.00;;;;;;;21.85;60.53;100045.34;5036465;28;20417;-68
2021/07/06 04:02:32;;;;;;;11.95;4.95;;;;;;;21.87;60.55;100045.66;5020059;28;20406;-69
2021/07/06 04:04:57;;;;;;;8.60;5.13;;;;;;;21.86;60.56;100053.44;5037745;28;20031;-70
2021/07/06 04:07:23;;;;;;;9.00;5.45;;;;;;;21.89;60.57;100055.31;5020286;28;20104;-68
2021/07/06 04:09:48;;;;;;;9.55;4.97;;;;;;;21.95;60.46;100063.25;5037954;28;20114;-68
2021/07/06 04:12:13;;;;;;;10.80;5.93;;;;;;;22.00;60.34;100059.72;5037208;28;20087;-68
2021/07/06 04:14:39;;;;;;;11.55;4.90;;;;;;;22.04;60.47;100057.47;5037900;28;20017;-66
2021/07/06 04:17:04;;;;;;;8.80;4.80;;;;;;;22.06;60.27;100063.50;5037688;28;20478;-70
2021/07/06 04:19:29;;;;;;;6.55;4.90;;;;;;;22.09;60.00;100059.66;5037720;28;20025;-70
2021/07/06 04:21:55;;;;;;;9.90;4.72;;;;;;;22.11;59.96;100068.53;5037187;28;20028;-71
2021/07/06 04:24:20;;;;;;;7.55;4.53;;;;;;;22.17;60.19;100069.44;5037763;28;20024;-71
2021/07/06 04:26:46;;;;;;;6.97;4.57;;;;;;;22.25;59.89;100067.78;5037882;28;20394;-71
2021/07/06 04:29:11;;;;;;;7.05;5.18;;;;;;;22.33;60.05;100082.50;5023573;28;20041;-70
2021/07/06 04:31:37;;;;;;;12.85;5.20;;;;;;;22.39;59.67;100087.03;5036825;28;20051;-71
2021/07/06 04:34:03;;;;;;;15.50;4.72;;;;;;;22.42;59.59;100083.19;5019897;28;20321;-70
2021/07/06 04:36:28;;;;;;;14.63;5.85;;;;;;;22.46;59.80;100083.81;5035758;28;20044;-70
2021/07/06 04:38:54;;;;;;;22.80;6.25;;;;;;;22.52;59.37;100096.16;5035996;28;20033;-70
2021/07/06 04:41:19;;;;;;;12.77;5.53;;;;;;;22.59;59.33;100092.09;5034378;28;20082;-71
2021/07/06 04:43:44;;;;;;;14.00;5.22;;;;;;;22.67;58.85;100090.41;5037309;28;20029;-70
2021/07/06 04:46:10;;;;;;;22.52;6.88;;;;;;;22.74;58.93;100092.91;5036799;28;20029;-70
2021/07/06 04:48:35;;;;;;;31.60;6.95;;;;;;;22.81;58.91;100095.41;5036350;28;20029;-70
2021/07/06 04:51:08;;;;;;;28.50;6.53;;;;;;;22.88;58.94;100088.47;5035880;28;20320;-70
2021/07/06 04:53:35;;;;;;;12.90;5.25;;;;;;;22.96;58.80;100091.72;5018529;28;20353;-70
2021/07/06 04:56:01;;;;;;;12.88;5.53;;;;;;;23.01;59.05;100093.88;5036502;28;20095;-70
2021/07/06 04:58:28;;;;;;;20.55;5.88;;;;;;;23.08;58.64;100091.41;5036186;28;20025;-70
2021/07/06 05:00:54;;;;;;;18.02;5.30;;;;;;;23.15;58.35;100095.16;5036908;28;20417;-70
2021/07/06 05:03:19;;;;;;;11.23;4.57;;;;;;;23.23;58.39;100096.31;5035341;28;20100;-71
2021/07/06 05:05:45;;;;;;;7.85;4.63;;;;;;;23.33;58.30;100092.06;5034213;28;20025;-70
2021/07/06 05:08:11;;;;;;;7.95;4.95;;;;;;;23.40;59.21;100100.25;5034840;28;20321;-70
2021/07/06 05:10:37;;;;;;;20.50;5.95;;;;;;;23.46;58.47;100095.38;5036008;28;20021;-70
2021/07/06 05:13:02;;;;;;;12.75;4.10;;;;;;;23.53;57.94;100089.22;5035653;28;20049;-70
2021/07/06 05:15:27;;;;;;;7.07;4.15;;;;;;;23.62;57.85;100097.72;5034561;28;20021;-70
2021/07/06 05:17:53;;;;;;;4.07;3.67;;;;;;;23.69;57.48;100094.44;5017404;28;20036;-70
2021/07/06 05:20:18;;;;;;;12.18;4.03;;;;;;;23.74;56.63;100099.47;5034350;28;20075;-70
2021/07/06 05:22:44;;;;;;;9.63;3.97;;;;;;;23.80;56.84;100095.88;5034125;28;20027;-71
2021/07/06 05:25:10;;;;;;;9.32;4.30;;;;;;;23.87;56.78;100106.94;5034642;28;20029;-70
2021/07/06 05:27:36;;;;;;;10.90;4.50;;;;;;;23.95;56.65;100102.34;5034920;28;20302;-70
2021/07/06 05:30:03;;;;;;;11.35;4.93;;;;;;;24.03;56.55;100109.22;5036532;28;20021;-71
2021/07/06 05:32:29;;;;;;;8.45;4.70;;;;;;;24.12;57.95;100109.09;5035312;28;20021;-70
2021/07/06 05:34:54;;;;;;;7.47;4.40;;;;;;;24.18;56.11;100106.28;5036163;28;20355;-71
2021/07/06 05:37:19;;;;;;;9.20;4.25;;;;;;;24.27;56.62;100106.91;5036343;28;20302;-71
2021/07/06 05:39:45;;;;;;;7.40;3.53;;;;;;;24.38;56.51;100108.34;5036155;28;20025;-71
2021/07/06 05:42:10;;;;;;;4.88;3.60;;;;;;;24.46;55.41;100100.88;5036377;28;20018;-71
2021/07/06 05:44:38;;;;;;;9.52;3.90;;;;;;;24.55;55.05;100115.06;5036148;28;20108;-72
2021/07/06 05:47:05;;;;;;;6.40;3.95;;;;;;;24.63;55.13;100114.09;5035987;28;20022;-71
2021/07/06 05:49:30;;;;;;;3.67;3.22;;;;;;;24.70;54.74;100114.97;5035961;28;20417;-71
2021/07/06 05:51:55;;;;;;;7.80;3.53;;;;;;;24.77;55.36;100120.25;5036018;28;20033;-73
2021/07/06 05:54:21;;;;;;;9.98;4.63;;;;;;;24.84;55.90;100120.59;5035815;28;20049;-71
2021/07/06 05:56:46;;;;;;;15.57;3.42;;;;;;;24.95;55.08;100120.69;5036157;28;20091;-71
2021/07/06 05:59:11;;;;;;;3.83;3.43;;;;;;;25.04;55.31;100130.47;5035985;28;20373;-70
2021/07/06 06:01:37;;;;;;;11.23;3.47;;;;;;;25.14;54.42;100123.22;5018280;28;20305;-72
2021/07/06 06:04:02;;;;;;;5.07;3.50;;;;;;;25.22;54.44;100121.47;5034886;28;20022;-74
2021/07/06 06:06:28;;;;;;;9.40;3.95;;;;;;;25.31;53.85;100129.13;5028898;28;20025;-70
2021/07/06 06:08:53;;;;;;;5.50;2.88;;;;;;;25.39;53.49;100133.09;5018300;28;20029;-70
2021/07/06 06:11:19;;;;;;;7.78;3.65;;;;;;;25.46;53.69;100136.28;5035547;28;20026;-70
2021/07/06 06:13:44;;;;;;;9.25;3.35;;;;;;;25.57;53.87;100136.38;5035733;28;20104;-70
2021/07/06 06:16:10;;;;;;;5.68;2.80;;;;;;;25.64;52.85;100135.09;5035728;28;20472;-70
2021/07/06 06:18:36;;;;;;;3.75;2.78;;;;;;;25.75;52.71;100152.50;5035280;28;20047;-70
2021/07/06 06:21:02;;;;;;;3.30;2.65;;;;;;;25.86;53.23;100148.88;5035618;28;20022;-70
2021/07/06 06:23:27;;;;;;;6.43;2.92;;;;;;;25.98;52.96;100150.50;5018244;28;20087;-70
2021/07/06 06:25:53;;;;;;;4.40;2.85;;;;;;;26.10;52.47;100152.16;5035463;28;20018;-70
2021/07/06 06:28:18;;;;;;;7.25;2.58;;;;;;;26.24;51.10;100146.69;5035367;28;20034;-70
2021/07/06 06:30:44;;;;;;;5.18;2.63;;;;;;;26.34;50.62;100148.09;5034613;28;20073;-70
2021/07/06 06:33:09;;;;;;;4.53;2.33;;;;;;;26.42;49.83;100143.38;5035014;28;20036;-70
2021/07/06 06:35:35;;;;;;;3.28;2.40;;;;;;;26.51;51.17;100142.34;5035681;28;20037;-70
2021/07/06 06:38:00;;;;;;;5.30;2.90;;;;;;;26.61;51.40;100146.59;5035334;28;20021;-70
2021/07/06 06:40:26;;;;;;;3.28;2.10;;;;;;;26.70;49.28;100152.91;5035737;28;20018;-70
2021/07/06 06:42:52;;;;;;;3.67;2.20;;;;;;;26.79;48.91;100157.63;5017753;28;20013;-70
2021/07/06 06:45:18;;;;;;;7.72;2.00;;;;;;;26.90;47.76;100154.00;5035346;28;20329;-70
2021/07/06 06:47:44;;;;;;;5.80;2.20;;;;;;;26.98;47.53;100155.03;5035153;28;20026;-71
2021/07/06 06:50:12;;;;;;;2.58;1.90;;;;;;;27.06;48.22;100153.22;5017573;28;20018;-70
2021/07/06 06:52:37;;;;;;;10.40;2.67;;;;;;;27.12;45.92;100145.38;5017869;28;20121;-70
2021/07/06 06:55:04;;;;;;;5.43;2.00;;;;;;;27.18;46.34;100148.28;5017469;28;20484;-70
2021/07/06 06:57:30;;;;;;;4.80;2.38;;;;;;;27.26;46.08;100160.84;5035275;28;20022;-70
2021/07/06 06:59:55;;;;;;;5.05;1.95;;;;;;;27.33;45.58;100155.34;5035138;28;20125;-70
2021/07/06 07:02:21;;;;;;;8.38;2.13;;;;;;;27.38;44.95;100157.44;5035074;28;20021;-70
2021/07/06 07:04:51;;;;;;;13.75;2.33;;;;;;;27.48;45.82;100160.06;5028537;28;20017;-71
2021/07/06 07:07:18;;;;;;;5.50;1.75;;;;;;;27.60;46.76;100155.84;5034910;28;20033;-70
2021/07/06 07:09:44;;;;;;;1.83;1.38;;;;;;;27.68;46.09;100154.03;5035293;28;20032;-71
2021/07/06 07:12:10;;;;;;;2.72;1.50;;;;;;;27.77;45.01;100153.75;5034874;28;20071;-71
2021/07/06 07:14:37;;;;;;;11.02;1.90;;;;;;;27.89;44.68;100155.28;5035086;28;20029;-70
2021/07/06 07:17:04;;;;;;;6.18;1.77;;;;;;;27.97;44.61;100155.53;5034705;28;20405;-70
2021/07/06 07:19:30;;;;;;;3.17;1.45;;;;;;;28.01;44.51;100151.06;5035231;28;20421;-70
2021/07/06 07:21:56;;;;;;;3.17;1.65;;;;;;;28.07;44.90;100153.13;5034888;28;20060;-70
2021/07/06 07:24:21;;;;;;;3.33;1.70;;;;;;;28.12;44.52;100149.44;5017462;28;20032;-71
2021/07/06 07:26:47;;;;;;;3.88;1.80;;;;;;;28.20;44.46;100162.00;5035135;28;20105;-70
2021/07/06 07:29:12;;;;;;;1.88;1.40;;;;;;;28.24;44.29;100162.53;5034760;28;20025;-70
2021/07/06 07:31:38;;;;;;;1.90;1.50;;;;;;;28.28;42.43;100145.72;5034797;28;20035;-70
2021/07/06 07:34:04;;;;;;;1.40;1.30;;;;;;;28.34;43.37;100152.25;5034981;28;20029;-70
2021/07/06 07:36:29;;;;;;;2.72;1.55;;;;;;;28.39;42.69;100150.66;5034643;28;20017;-71
2021/07/06 07:38:56;;;;;;;1.98;1.60;;;;;;;28.45;42.21;100148.53;5035011;28;20064;-70
2021/07/06 07:41:22;;;;;;;2.47;1.65;;;;;;;28.50;42.24;100145.63;5034968;28;20017;-70
2021/07/06 07:43:54;;;;;;;2.88;1.70;;;;;;;28.56;41.96;100149.25;5034819;28;20033;-71
2021/07/06 07:46:23;;;;;;;2.70;1.60;;;;;;;28.65;41.63;100144.47;5036497;28;20021;-71
2021/07/06 07:48:48;;;;;;;1.50;1.40;;;;;;;28.73;42.24;100139.69;5038560;28;20340;-76
2021/07/06 07:51:15;;;;;;;2.45;1.60;;;;;;;28.85;43.09;100144.13;5038609;28;20033;-75
2021/07/06 07:53:40;;;;;;;3.70;1.38;;;;;;;28.91;42.57;100142.75;5038320;28;20025;-70
2021/07/06 07:56:06;;;;;;;2.75;1.40;;;;;;;28.99;41.28;100142.16;5038140;28;20059;-71
2021/07/06 07:58:31;;;;;;;5.35;1.67;;;;;;;29.06;41.49;100138.72;5038078;28;20058;-74
2021/07/06 08:00:57;;;;;;;2.80;1.52;;;;;;;29.12;40.48;100143.13;5020701;28;20037;-72
2021/07/06 08:03:23;;;;;;;1.75;1.30;;;;;;;29.18;40.09;100146.75;5038258;28;20045;-73
2021/07/06 08:05:49;;;;;;;1.75;1.20;;;;;;;29.25;39.65;100142.47;5038082;28;20435;-73
2021/07/06 08:08:15;;;;;;;3.42;1.52;;;;;;;29.28;39.74;100149.28;5020371;28;20040;-71
2021/07/06 08:10:41;;;;;;;1.33;1.23;;;;;;;29.30;40.02;100147.44;5038040;28;20357;-72
2021/07/06 08:13:09;;;;;;;1.40;1.30;;;;;;;29.35;39.41;100148.72;5037806;28;20079;-72
2021/07/06 08:15:34;;;;;;;2.35;1.30;;;;;;;29.36;38.84;100142.41;5037552;28;20036;-74
2021/07/06 08:18:00;;;;;;;0.73;0.73;;;;;;;29.38;38.63;100142.66;5037827;28;20025;-72
2021/07/06 08:20:25;;;;;;;2.83;1.50;;;;;;;29.42;38.30;100142.34;5037832;28;20100;-75
2021/07/06 08:22:55;;;;;;;3.20;1.38;;;;;;;29.40;38.27;100142.88;5020461;28;20074;-72
2021/07/06 08:25:22;;;;;;;3.58;1.35;;;;;;;29.37;38.68;100140.28;5037613;28;20025;-72
2021/07/06 08:27:48;;;;;;;2.22;1.13;;;;;;;29.37;38.63;100143.97;5020090;28;20329;-75
2021/07/06 08:30:13;;;;;;;1.30;1.17;;;;;;;29.41;38.10;100135.00;5037304;28;20029;-76
2021/07/06 08:32:39;;;;;;;1.73;1.10;;;;;;;29.42;37.59;100133.66;5037512;28;20048;-73
2021/07/06 08:35:06;;;;;;;3.33;1.50;;;;;;;29.41;38.67;100135.78;5020000;28;20059;-71
2021/07/06 08:37:31;;;;;;;1.73;1.17;;;;;;;29.42;38.14;100137.34;5037425;28;20111;-70
2021/07/06 08:39:57;;;;;;;2.95;1.30;;;;;;;29.53;38.85;100133.56;5037547;28;20053;-72
2021/07/06 08:42:23;;;;;;;3.42;1.40;;;;;;;29.67;38.20;100141.06;5037513;28;20087;-75
2021/07/06 08:44:48;;;;;;;1.65;1.40;;;;;;;29.76;37.87;100131.22;5037183;28;20018;-70
2021/07/06 08:47:17;;;;;;;2.05;1.48;;;;;;;29.84;38.21;100143.78;5037510;28;20021;-76
2021/07/06 08:49:47;;;;;;;2.90;1.30;;;;;;;29.94;38.31;100141.31;5019765;28;20451;-75
2021/07/06 08:52:14;;;;;;;4.78;1.35;;;;;;;29.97;36.80;100143.13;5019647;28;20356;-76
2021/07/06 08:54:39;;;;;;;1.08;1.00;;;;;;;29.95;37.47;100134.19;5037273;28;20053;-77
2021/07/06 08:57:06;;;;;;;3.88;1.00;;;;;;;30.00;37.29;100133.34;5036334;28;20057;-75
2021/07/06 08:59:37;;;;;;;3.92;1.25;;;;;;;30.07;36.72;100132.75;5037142;28;20030;-75
2021/07/06 09:02:03;;;;;;;4.60;1.00;;;;;;;30.16;36.58;100143.19;5019510;28;20059;-76
2021/07/06 09:04:42;;;;;;;2.20;1.30;;;;;;;30.22;36.68;100144.69;5015354;28;20108;-75
2021/07/06 09:07:08;;;;;;;6.18;1.13;;;;;;;30.25;35.95;100132.00;5035267;28;20032;-77
2021/07/06 09:09:33;;;;;;;3.45;1.15;;;;;;;30.28;36.68;100130.91;5037245;28;20029;-76
2021/07/06 09:12:00;;;;;;;1.30;1.13;;;;;;;30.34;36.50;100145.31;5036749;28;20108;-76
2021/07/06 09:14:30;;;;;;;1.45;0.93;;;;;;;30.38;35.91;100140.00;5036968;28;20029;-76
2021/07/06 09:17:12;;;;;;;2.83;1.30;;;;;;;30.40;35.62;100141.00;5036914;28;20025;-77
2021/07/06 09:19:40;;;;;;;4.85;0.80;;;;;;;30.44;37.38;100140.72;5036830;28;20059;-75
2021/07/06 09:22:15;;;;;;;4.53;1.13;;;;;;;30.48;36.49;100137.50;5036683;28;20079;-76
2021/07/06 09:24:42;;;;;;;1.85;0.93;;;;;;;30.51;35.84;100142.19;5036849;28;20317;-77
2021/07/06 09:27:31;;;;;;;3.60;0.75;;;;;;;30.61;35.21;100152.09;5035153;28;20021;-75
2021/07/06 09:30:22;;;;;;;1.88;0.90;;;;;;;30.71;35.06;100144.59;5036958;28;20317;-70
2021/07/06 09:32:53;;;;;;;2.78;0.90;;;;;;;30.76;34.40;100146.63;5019037;28;20295;-71
2021/07/06 09:35:24;;;;;;;7.05;1.20;;;;;;;30.82;34.73;100150.22;5019255;28;20421;-71
2021/07/06 09:37:51;;;;;;;1.95;1.00;;;;;;;30.84;34.36;100138.84;5036789;28;20037;-72
2021/07/06 09:40:20;;;;;;;2.85;1.10;;;;;;;30.81;35.47;100148.66;5036711;28;20036;-71
2021/07/06 09:42:45;;;;;;;1.88;1.00;;;;;;;30.87;35.09;100145.66;5036300;28;20360;-71
2021/07/06 09:45:11;;;;;;;1.52;1.00;;;;;;;30.90;34.74;100136.63;5018837;28;20025;-72
2021/07/06 09:47:36;;;;;;;3.45;1.50;;;;;;;30.94;35.22;100134.19;5036502;28;20096;-71
2021/07/06 09:50:02;;;;;;;3.33;0.90;;;;;;;30.94;34.25;100127.59;5036544;28;20056;-70
2021/07/06 09:52:34;;;;;;;1.00;0.98;;;;;;;30.96;34.59;100127.84;5018816;28;20033;-70
2021/07/06 09:55:06;;;;;;;6.18;0.80;;;;;;;31.01;34.35;100139.38;5036133;28;20069;-70
2021/07/06 09:57:37;;;;;;;1.00;0.80;;;;;;;31.05;33.02;100127.44;5036104;28;20059;-71
2021/07/06 10:00:10;;;;;;;1.33;0.90;;;;;;;31.02;33.36;100125.63;5036199;28;20088;-70
2021/07/06 10:02:37;;;;;;;4.57;0.90;;;;;;;31.06;34.98;100129.78;5036432;28;20023;-70
2021/07/06 10:05:08;;;;;;;2.42;1.02;;;;;;;31.11;33.81;100130.25;5028131;28;20348;-71
2021/07/06 10:07:36;;;;;;;1.58;0.90;;;;;;;31.15;34.14;100130.69;5036349;28;20037;-70
2021/07/06 10:10:08;;;;;;;4.72;0.90;;;;;;;31.21;33.60;100125.59;5035726;28;20044;-70
2021/07/06 10:12:36;;;;;;;1.42;1.00;;;;;;;31.24;32.92;100121.63;5036160;28;20128;-70
2021/07/06 10:15:03;;;;;;;2.67;1.08;;;;;;;31.28;34.61;100133.69;5036247;28;20037;-71
2021/07/06 10:17:30;;;;;;;4.30;1.00;;;;;;;31.31;33.39;100123.88;5035855;28;20029;-71
2021/07/06 10:19:55;;;;;;;2.85;0.90;;;;;;;31.38;32.95;100136.94;5036061;28;20094;-71
2021/07/06 10:22:20;;;;;;;2.40;1.30;;;;;;;31.41;33.35;100136.63;5035848;28;20404;-72
2021/07/06 10:24:47;;;;;;;3.35;1.08;;;;;;;31.52;34.15;100136.44;5035820;28;20025;-70
2021/07/06 10:27:21;;;;;;;6.13;1.10;;;;;;;31.58;31.99;100131.28;5035696;28;20032;-70
2021/07/06 10:29:48;;;;;;;6.57;1.35;;;;;;;31.50;32.37;100135.38;5035877;28;20075;-70
2021/07/06 10:32:39;;;;;;;5.47;1.30;;;;;;;31.54;32.80;100121.34;5035783;28;20029;-71
2021/07/06 10:35:07;;;;;;;4.82;1.55;;;;;;;31.59;33.33;100129.94;5018404;28;20371;-75
2021/07/06 10:37:33;;;;;;;2.33;1.33;;;;;;;31.64;30.94;100120.34;5035832;28;20032;-70
2021/07/06 10:40:28;;;;;;;2.38;1.00;;;;;;;31.61;31.98;100124.38;5035483;28;20025;-75
2021/07/06 10:42:53;;;;;;;1.70;1.23;;;;;;;31.66;32.15;100116.88;5022529;28;20413;-76
2021/07/06 10:45:25;;;;;;;3.70;1.90;;;;;;;31.68;32.72;100114.97;5034829;28;20057;-77
2021/07/06 10:47:54;;;;;;;2.00;1.60;;;;;;;31.76;33.01;100123.84;5035920;28;20290;-75
2021/07/06 10:50:32;;;;;;;2.25;1.00;;;;;;;31.86;32.29;100112.56;5035756;28;20097;-76
2021/07/06 10:53:20;;;;;;;1.02;0.93;;;;;;;31.83;32.06;100110.78;5018484;28;20329;-75
2021/07/06 10:56:01;;;;;;;2.53;1.00;;;;;;;31.79;31.50;100113.25;5051350;28;20199;-76
2021/07/06 10:58:45;;;;;;;4.45;1.10;;;;;;;31.78;31.73;100100.06;5018291;28;20030;-76
2021/07/06 11:01:11;;;;;;;4.82;0.90;;;;;;;31.84;31.89;100095.69;5035721;28;20424;-76
2021/07/06 11:03:40;;;;;;;1.05;0.82;;;;;;;31.86;31.89;100103.84;5035731;28;20044;-74
2021/07/06 11:06:43;;;;;;;0.77;0.70;;;;;;;31.89;32.40;100094.00;5027821;28;20037;-76
2021/07/06 11:09:09;;;;;;;0.75;0.75;;;;;;;31.93;32.05;100089.41;5035273;28;20290;-76
2021/07/06 11:11:35;;;;;;;2.15;0.90;;;;;;;32.02;32.43;100090.28;5035852;28;20289;-75
2021/07/06 11:14:23;;;;;;;1.90;0.93;;;;;;;32.12;31.84;100082.69;5035665;28;20021;-76
2021/07/06 11:17:01;;;;;;;1.75;1.00;;;;;;;32.17;31.57;100085.47;5035419;28;20119;-77
2021/07/06 11:19:34;;;;;;;3.67;0.80;;;;;;;32.22;32.21;100092.50;5043044;28;20042;-76
2021/07/06 11:22:14;;;;;;;2.53;1.30;;;;;;;32.31;31.79;100088.38;5015702;28;20033;-77
2021/07/06 11:24:49;;;;;;;2.83;0.60;;;;;;;32.36;31.75;100088.28;5021468;28;20428;-75
2021/07/06 11:27:53;;;;;;;1.95;0.88;;;;;;;32.40;31.67;100085.03;5038682;28;20033;-77